sensor_id;sensor_type;location;lat;lon;timestamp;P1;durP1;ratioP1;P2;durP2;ratioP2
32096;SDS011;18610;49.916;8.284;2022-09-21T00:01:21;8.55;;;2.67;;
32096;SDS011;18610;49.916;8.284;2022-09-21T00:03:50;14.55;;;3.47;;
32096;SDS011;18610;49.916;8.284;2022-09-21T00:06:18;7.43;;;3.42;;
32096;SDS011;18610;49.916;8.284;2022-09-21T00:08:47;10.45;;;3.65;;
32096;SDS011;18610;49.916;8.284;2022-09-21T00:11:15;8.20;;;4.10;;
32096;SDS011;18610;49.916;8.284;2022-09-21T00:13:44;6.20;;;2.92;;
32096;SDS011;18610;49.916;8.284;2022-09-21T00:16:12;9.95;;;3.70;;
32096;SDS011;18610;49.916;8.284;2022-09-21T00:18:40;12.05;;;3.53;;
32096;SDS011;18610;49.916;8.284;2022-09-21T00:21:07;9.20;;;4.13;;
32096;SDS011;18610;49.916;8.284;2022-09-21T00:23:35;5.38;;;3.42;;
32096;SDS011;18610;49.916;8.284;2022-09-21T00:26:05;9.05;;;3.53;;
32096;SDS011;18610;49.916;8.284;2022-09-21T00:28:32;8.80;;;3.70;;
32096;SDS011;18610;49.916;8.284;2022-09-21T00:31:00;8.90;;;3.70;;
32096;SDS011;18610;49.916;8.284;2022-09-21T00:33:27;10.43;;;3.47;;
32096;SDS011;18610;49.916;8.284;2022-09-21T00:35:54;6.85;;;4.00;;
32096;SDS011;18610;49.916;8.284;2022-09-21T00:38:21;12.07;;;3.20;;
32096;SDS011;18610;49.916;8.284;2022-09-21T00:40:47;10.32;;;4.00;;
32096;SDS011;18610;49.916;8.284;2022-09-21T00:43:16;18.50;;;4.43;;
32096;SDS011;18610;49.916;8.284;2022-09-21T00:45:43;12.52;;;3.90;;
32096;SDS011;18610;49.916;8.284;2022-09-21T00:48:13;10.63;;;4.00;;
32096;SDS011;18610;49.916;8.284;2022-09-21T00:50:41;11.85;;;3.55;;
32096;SDS011;18610;49.916;8.284;2022-09-21T00:53:11;6.82;;;3.53;;
32096;SDS011;18610;49.916;8.284;2022-09-21T00:55:40;11.18;;;3.63;;
32096;SDS011;18610;49.916;8.284;2022-09-21T00:58:14;8.77;;;3.65;;
32096;SDS011;18610;49.916;8.284;2022-09-21T01:00:47;10.05;;;3.67;;
32096;SDS011;18610;49.916;8.284;2022-09-21T01:03:13;11.73;;;3.67;;
32096;SDS011;18610;49.916;8.284;2022-09-21T01:05:40;8.70;;;3.08;;
32096;SDS011;18610;49.916;8.284;2022-09-21T01:08:08;12.75;;;3.42;;
32096;SDS011;18610;49.916;8.284;2022-09-21T01:10:40;12.93;;;4.32;;
32096;SDS011;18610;49.916;8.284;2022-09-21T01:13:20;4.47;;;3.08;;
32096;SDS011;18610;49.916;8.284;2022-09-21T01:15:56;13.73;;;3.63;;
32096;SDS011;18610;49.916;8.284;2022-09-21T01:21:06;9.32;;;3.55;;
32096;SDS011;18610;49.916;8.284;2022-09-21T01:26:57;12.60;;;3.70;;
32096;SDS011;18610;49.916;8.284;2022-09-21T01:29:50;7.40;;;3.20;;
32096;SDS011;18610;49.916;8.284;2022-09-21T01:32:21;8.68;;;3.88;;
32096;SDS011;18610;49.916;8.284;2022-09-21T01:34:52;9.15;;;4.60;;
32096;SDS011;18610;49.916;8.284;2022-09-21T01:37:23;8.10;;;4.30;;
32096;SDS011;18610;49.916;8.284;2022-09-21T01:42:24;9.52;;;3.67;;
32096;SDS011;18610;49.916;8.284;2022-09-21T01:44:55;6.68;;;3.30;;
32096;SDS011;18610;49.916;8.284;2022-09-21T01:47:25;12.40;;;4.37;;
32096;SDS011;18610;49.916;8.284;2022-09-21T01:49:55;13.27;;;4.68;;
32096;SDS011;18610;49.916;8.284;2022-09-21T01:52:29;8.02;;;3.30;;
32096;SDS011;18610;49.916;8.284;2022-09-21T01:55:00;7.78;;;3.72;;
32096;SDS011;18610;49.916;8.284;2022-09-21T01:57:33;11.98;;;3.75;;
32096;SDS011;18610;49.916;8.284;2022-09-21T02:00:07;11.73;;;4.03;;
32096;SDS011;18610;49.916;8.284;2022-09-21T02:02:36;11.40;;;4.35;;
32096;SDS011;18610;49.916;8.284;2022-09-21T02:05:06;8.43;;;4.35;;
32096;SDS011;18610;49.916;8.284;2022-09-21T02:07:34;9.30;;;4.28;;
32096;SDS011;18610;49.916;8.284;2022-09-21T02:10:03;17.33;;;4.78;;
32096;SDS011;18610;49.916;8.284;2022-09-21T02:12:32;8.20;;;4.25;;
32096;SDS011;18610;49.916;8.284;2022-09-21T02:14:59;10.32;;;4.65;;
32096;SDS011;18610;49.916;8.284;2022-09-21T02:17:35;13.10;;;4.50;;
32096;SDS011;18610;49.916;8.284;2022-09-21T02:20:09;7.80;;;4.38;;
32096;SDS011;18610;49.916;8.284;2022-09-21T02:22:46;13.68;;;4.78;;
32096;SDS011;18610;49.916;8.284;2022-09-21T02:25:24;12.85;;;4.30;;
32096;SDS011;18610;49.916;8.284;2022-09-21T02:27:57;11.35;;;4.68;;
32096;SDS011;18610;49.916;8.284;2022-09-21T02:30:31;7.72;;;4.65;;
32096;SDS011;18610;49.916;8.284;2022-09-21T02:33:03;9.68;;;4.30;;
32096;SDS011;18610;49.916;8.284;2022-09-21T02:35:37;9.85;;;4.70;;
32096;SDS011;18610;49.916;8.284;2022-09-21T02:38:10;14.23;;;4.70;;
32096;SDS011;18610;49.916;8.284;2022-09-21T02:40:44;22.58;;;5.07;;
32096;SDS011;18610;49.916;8.284;2022-09-21T02:43:18;16.02;;;4.28;;
32096;SDS011;18610;49.916;8.284;2022-09-21T02:45:49;8.07;;;4.30;;
32096;SDS011;18610;49.916;8.284;2022-09-21T02:48:21;10.40;;;3.80;;
32096;SDS011;18610;49.916;8.284;2022-09-21T02:50:52;6.78;;;4.38;;
32096;SDS011;18610;49.916;8.284;2022-09-21T02:53:22;7.78;;;4.18;;
32096;SDS011;18610;49.916;8.284;2022-09-21T02:55:51;12.25;;;4.55;;
32096;SDS011;18610;49.916;8.284;2022-09-21T02:58:20;15.88;;;5.25;;
32096;SDS011;18610;49.916;8.284;2022-09-21T03:00:49;10.20;;;4.70;;
32096;SDS011;18610;49.916;8.284;2022-09-21T03:03:17;11.07;;;4.47;;
32096;SDS011;18610;49.916;8.284;2022-09-21T03:05:47;12.65;;;5.45;;
32096;SDS011;18610;49.916;8.284;2022-09-21T03:08:16;11.50;;;4.60;;
32096;SDS011;18610;49.916;8.284;2022-09-21T03:10:43;10.00;;;5.95;;
32096;SDS011;18610;49.916;8.284;2022-09-21T03:13:13;12.35;;;4.95;;
32096;SDS011;18610;49.916;8.284;2022-09-21T03:15:40;5.60;;;4.60;;
32096;SDS011;18610;49.916;8.284;2022-09-21T03:18:07;10.80;;;5.13;;
32096;SDS011;18610;49.916;8.284;2022-09-21T03:20:37;13.40;;;5.57;;
32096;SDS011;18610;49.916;8.284;2022-09-21T03:23:07;10.00;;;4.63;;
32096;SDS011;18610;49.916;8.284;2022-09-21T03:25:33;13.25;;;5.13;;
32096;SDS011;18610;49.916;8.284;2022-09-21T03:28:01;12.88;;;5.20;;
32096;SDS011;18610;49.916;8.284;2022-09-21T03:30:28;11.93;;;5.65;;
32096;SDS011;18610;49.916;8.284;2022-09-21T03:32:55;8.57;;;4.63;;
32096;SDS011;18610;49.916;8.284;2022-09-21T03:35:23;13.63;;;5.30;;
32096;SDS011;18610;49.916;8.284;2022-09-21T03:37:50;10.40;;;4.68;;
32096;SDS011;18610;49.916;8.284;2022-09-21T03:40:20;15.02;;;5.40;;
32096;SDS011;18610;49.916;8.284;2022-09-21T03:42:47;7.88;;;5.20;;
32096;SDS011;18610;49.916;8.284;2022-09-21T03:45:14;10.68;;;5.05;;
32096;SDS011;18610;49.916;8.284;2022-09-21T03:47:41;12.70;;;4.82;;
32096;SDS011;18610;49.916;8.284;2022-09-21T03:50:08;11.70;;;5.05;;
32096;SDS011;18610;49.916;8.284;2022-09-21T03:52:36;8.43;;;4.55;;
32096;SDS011;18610;49.916;8.284;2022-09-21T03:55:03;12.48;;;5.53;;
32096;SDS011;18610;49.916;8.284;2022-09-21T03:57:32;14.50;;;5.70;;
32096;SDS011;18610;49.916;8.284;2022-09-21T04:00:00;10.40;;;5.32;;
32096;SDS011;18610;49.916;8.284;2022-09-21T04:02:28;10.88;;;5.38;;
32096;SDS011;18610;49.916;8.284;2022-09-21T04:04:56;8.93;;;5.97;;
32096;SDS011;18610;49.916;8.284;2022-09-21T04:07:23;10.68;;;5.70;;
32096;SDS011;18610;49.916;8.284;2022-09-21T04:09:50;11.65;;;5.82;;
32096;SDS011;18610;49.916;8.284;2022-09-21T04:12:19;10.05;;;5.85;;
32096;SDS011;18610;49.916;8.284;2022-09-21T04:14:48;13.48;;;7.05;;
32096;SDS011;18610;49.916;8.284;2022-09-21T04:17:15;11.63;;;6.03;;
32096;SDS011;18610;49.916;8.284;2022-09-21T04:19:41;14.07;;;6.85;;
32096;SDS011;18610;49.916;8.284;2022-09-21T04:22:09;14.75;;;6.90;;
32096;SDS011;18610;49.916;8.284;2022-09-21T04:24:43;11.30;;;6.05;;
32096;SDS011;18610;49.916;8.284;2022-09-21T04:27:10;11.93;;;6.32;;
32096;SDS011;18610;49.916;8.284;2022-09-21T04:29:37;12.65;;;6.80;;
32096;SDS011;18610;49.916;8.284;2022-09-21T04:32:05;17.52;;;6.80;;
32096;SDS011;18610;49.916;8.284;2022-09-21T04:34:32;12.95;;;6.53;;
32096;SDS011;18610;49.916;8.284;2022-09-21T04:36:59;11.05;;;6.05;;
32096;SDS011;18610;49.916;8.284;2022-09-21T04:39:25;17.08;;;7.20;;
32096;SDS011;18610;49.916;8.284;2022-09-21T04:41:52;12.82;;;6.43;;
32096;SDS011;18610;49.916;8.284;2022-09-21T04:44:19;15.10;;;6.75;;
32096;SDS011;18610;49.916;8.284;2022-09-21T04:46:46;13.65;;;6.90;;
32096;SDS011;18610;49.916;8.284;2022-09-21T04:49:14;15.45;;;6.97;;
32096;SDS011;18610;49.916;8.284;2022-09-21T04:51:41;22.02;;;8.13;;
32096;SDS011;18610;49.916;8.284;2022-09-21T04:54:08;15.18;;;7.88;;
32096;SDS011;18610;49.916;8.284;2022-09-21T04:56:34;13.52;;;7.75;;
32096;SDS011;18610;49.916;8.284;2022-09-21T04:59:01;14.40;;;9.10;;
32096;SDS011;18610;49.916;8.284;2022-09-21T05:01:29;13.70;;;8.27;;
32096;SDS011;18610;49.916;8.284;2022-09-21T05:03:56;25.17;;;9.80;;
32096;SDS011;18610;49.916;8.284;2022-09-21T05:06:27;16.83;;;9.55;;
32096;SDS011;18610;49.916;8.284;2022-09-21T05:08:54;15.93;;;8.82;;
32096;SDS011;18610;49.916;8.284;2022-09-21T05:11:38;17.92;;;8.60;;
32096;SDS011;18610;49.916;8.284;2022-09-21T05:14:05;12.88;;;9.00;;
32096;SDS011;18610;49.916;8.284;2022-09-21T05:16:32;14.63;;;9.05;;
32096;SDS011;18610;49.916;8.284;2022-09-21T05:18:58;17.25;;;8.63;;
32096;SDS011;18610;49.916;8.284;2022-09-21T05:21:26;18.33;;;8.50;;
32096;SDS011;18610;49.916;8.284;2022-09-21T05:23:55;16.77;;;8.68;;
32096;SDS011;18610;49.916;8.284;2022-09-21T05:26:22;19.95;;;8.40;;
32096;SDS011;18610;49.916;8.284;2022-09-21T05:28:49;12.73;;;8.73;;
32096;SDS011;18610;49.916;8.284;2022-09-21T05:31:22;22.90;;;9.32;;
32096;SDS011;18610;49.916;8.284;2022-09-21T05:33:57;17.33;;;9.05;;
32096;SDS011;18610;49.916;8.284;2022-09-21T05:36:32;22.95;;;9.05;;
32096;SDS011;18610;49.916;8.284;2022-09-21T05:39:06;19.20;;;8.10;;
32096;SDS011;18610;49.916;8.284;2022-09-21T05:41:34;13.75;;;8.07;;
32096;SDS011;18610;49.916;8.284;2022-09-21T05:44:01;21.38;;;8.85;;
32096;SDS011;18610;49.916;8.284;2022-09-21T05:46:32;24.00;;;8.85;;
32096;SDS011;18610;49.916;8.284;2022-09-21T05:49:04;14.95;;;8.45;;
32096;SDS011;18610;49.916;8.284;2022-09-21T05:51:43;13.77;;;9.55;;
32096;SDS011;18610;49.916;8.284;2022-09-21T05:54:19;18.65;;;9.70;;
32096;SDS011;18610;49.916;8.284;2022-09-21T05:56:56;25.15;;;9.60;;
32096;SDS011;18610;49.916;8.284;2022-09-21T05:59:32;17.38;;;8.80;;
32096;SDS011;18610;49.916;8.284;2022-09-21T06:02:14;17.25;;;9.27;;
32096;SDS011;18610;49.916;8.284;2022-09-21T06:04:50;15.40;;;8.88;;
32096;SDS011;18610;49.916;8.284;2022-09-21T06:07:20;24.63;;;9.52;;
32096;SDS011;18610;49.916;8.284;2022-09-21T06:09:47;17.35;;;9.23;;
32096;SDS011;18610;49.916;8.284;2022-09-21T06:12:14;18.25;;;10.00;;
32096;SDS011;18610;49.916;8.284;2022-09-21T06:14:40;20.98;;;9.20;;
32096;SDS011;18610;49.916;8.284;2022-09-21T06:17:08;21.83;;;9.88;;
32096;SDS011;18610;49.916;8.284;2022-09-21T06:19:35;28.15;;;10.18;;
32096;SDS011;18610;49.916;8.284;2022-09-21T06:22:02;18.77;;;9.82;;
32096;SDS011;18610;49.916;8.284;2022-09-21T06:24:30;33.35;;;10.30;;
32096;SDS011;18610;49.916;8.284;2022-09-21T06:26:57;26.75;;;9.20;;
32096;SDS011;18610;49.916;8.284;2022-09-21T06:29:23;18.02;;;9.32;;
32096;SDS011;18610;49.916;8.284;2022-09-21T06:31:50;30.05;;;10.35;;
32096;SDS011;18610;49.916;8.284;2022-09-21T06:34:17;14.65;;;9.80;;
32096;SDS011;18610;49.916;8.284;2022-09-21T06:36:44;16.73;;;8.88;;
32096;SDS011;18610;49.916;8.284;2022-09-21T06:39:10;17.98;;;9.25;;
32096;SDS011;18610;49.916;8.284;2022-09-21T06:41:39;18.73;;;10.23;;
32096;SDS011;18610;49.916;8.284;2022-09-21T06:44:05;15.02;;;9.48;;
32096;SDS011;18610;49.916;8.284;2022-09-21T06:46:32;16.30;;;8.88;;
32096;SDS011;18610;49.916;8.284;2022-09-21T06:48:59;15.50;;;9.45;;
32096;SDS011;18610;49.916;8.284;2022-09-21T06:51:26;15.45;;;7.47;;
32096;SDS011;18610;49.916;8.284;2022-09-21T06:53:53;18.67;;;9.60;;
32096;SDS011;18610;49.916;8.284;2022-09-21T06:56:21;27.23;;;11.18;;
32096;SDS011;18610;49.916;8.284;2022-09-21T06:58:49;16.42;;;9.48;;
32096;SDS011;18610;49.916;8.284;2022-09-21T07:01:17;21.92;;;8.98;;
32096;SDS011;18610;49.916;8.284;2022-09-21T07:03:47;15.43;;;7.95;;
32096;SDS011;18610;49.916;8.284;2022-09-21T07:06:14;15.50;;;7.47;;
32096;SDS011;18610;49.916;8.284;2022-09-21T07:08:41;18.02;;;8.20;;
32096;SDS011;18610;49.916;8.284;2022-09-21T07:11:09;13.90;;;6.72;;
32096;SDS011;18610;49.916;8.284;2022-09-21T07:13:36;12.88;;;6.70;;
32096;SDS011;18610;49.916;8.284;2022-09-21T07:16:05;14.75;;;7.85;;
32096;SDS011;18610;49.916;8.284;2022-09-21T07:18:33;13.93;;;7.13;;
32096;SDS011;18610;49.916;8.284;2022-09-21T07:21:01;11.63;;;6.25;;
32096;SDS011;18610;49.916;8.284;2022-09-21T07:23:29;13.15;;;7.03;;
32096;SDS011;18610;49.916;8.284;2022-09-21T07:25:59;8.40;;;5.32;;
32096;SDS011;18610;49.916;8.284;2022-09-21T07:28:27;16.70;;;7.43;;
32096;SDS011;18610;49.916;8.284;2022-09-21T07:30:54;7.55;;;4.80;;
32096;SDS011;18610;49.916;8.284;2022-09-21T07:33:22;10.57;;;5.03;;
32096;SDS011;18610;49.916;8.284;2022-09-21T07:35:49;10.82;;;4.85;;
32096;SDS011;18610;49.916;8.284;2022-09-21T07:38:17;17.40;;;6.07;;
32096;SDS011;18610;49.916;8.284;2022-09-21T07:40:44;12.73;;;5.60;;
32096;SDS011;18610;49.916;8.284;2022-09-21T07:43:10;11.80;;;4.60;;
32096;SDS011;18610;49.916;8.284;2022-09-21T07:45:37;11.20;;;4.78;;
32096;SDS011;18610;49.916;8.284;2022-09-21T07:48:04;9.82;;;5.00;;
32096;SDS011;18610;49.916;8.284;2022-09-21T07:50:34;8.82;;;4.03;;
32096;SDS011;18610;49.916;8.284;2022-09-21T07:53:02;9.55;;;4.38;;
32096;SDS011;18610;49.916;8.284;2022-09-21T07:55:29;16.02;;;6.50;;
32096;SDS011;18610;49.916;8.284;2022-09-21T07:57:56;10.95;;;5.05;;
32096;SDS011;18610;49.916;8.284;2022-09-21T08:00:39;14.80;;;5.00;;
32096;SDS011;18610;49.916;8.284;2022-09-21T08:03:06;12.70;;;4.95;;
32096;SDS011;18610;49.916;8.284;2022-09-21T08:05:34;12.05;;;5.25;;
32096;SDS011;18610;49.916;8.284;2022-09-21T08:08:01;19.00;;;4.85;;
32096;SDS011;18610;49.916;8.284;2022-09-21T08:10:28;11.20;;;4.25;;
32096;SDS011;18610;49.916;8.284;2022-09-21T08:12:56;12.85;;;5.65;;
32096;SDS011;18610;49.916;8.284;2022-09-21T08:15:22;17.67;;;5.82;;
32096;SDS011;18610;49.916;8.284;2022-09-21T08:17:49;9.70;;;4.78;;
32096;SDS011;18610;49.916;8.284;2022-09-21T08:20:16;15.10;;;5.10;;
32096;SDS011;18610;49.916;8.284;2022-09-21T08:22:45;18.67;;;5.38;;
32096;SDS011;18610;49.916;8.284;2022-09-21T08:25:11;14.70;;;6.22;;
32096;SDS011;18610;49.916;8.284;2022-09-21T08:27:38;15.07;;;6.35;;
32096;SDS011;18610;49.916;8.284;2022-09-21T08:30:07;14.07;;;5.65;;
32096;SDS011;18610;49.916;8.284;2022-09-21T08:32:37;13.10;;;5.90;;
32096;SDS011;18610;49.916;8.284;2022-09-21T08:35:04;16.25;;;5.70;;
32096;SDS011;18610;49.916;8.284;2022-09-21T08:37:32;14.00;;;6.15;;
32096;SDS011;18610;49.916;8.284;2022-09-21T08:40:02;16.63;;;6.32;;
32096;SDS011;18610;49.916;8.284;2022-09-21T08:42:35;13.30;;;5.93;;
32096;SDS011;18610;49.916;8.284;2022-09-21T08:45:08;16.75;;;4.47;;
32096;SDS011;18610;49.916;8.284;2022-09-21T08:47:39;7.88;;;4.15;;
32096;SDS011;18610;49.916;8.284;2022-09-21T08:50:14;8.18;;;4.45;;
32096;SDS011;18610;49.916;8.284;2022-09-21T08:52:50;11.23;;;4.47;;
32096;SDS011;18610;49.916;8.284;2022-09-21T08:55:21;10.48;;;3.60;;
32096;SDS011;18610;49.916;8.284;2022-09-21T08:57:48;9.70;;;4.07;;
32096;SDS011;18610;49.916;8.284;2022-09-21T09:00:16;7.10;;;3.65;;
32096;SDS011;18610;49.916;8.284;2022-09-21T09:03:00;10.40;;;3.42;;
32096;SDS011;18610;49.916;8.284;2022-09-21T09:05:43;8.05;;;3.80;;
32096;SDS011;18610;49.916;8.284;2022-09-21T09:08:17;8.10;;;3.88;;
32096;SDS011;18610;49.916;8.284;2022-09-21T09:11:08;7.72;;;3.05;;
32096;SDS011;18610;49.916;8.284;2022-09-21T09:13:50;8.68;;;3.08;;
32096;SDS011;18610;49.916;8.284;2022-09-21T09:16:35;11.30;;;3.45;;
32096;SDS011;18610;49.916;8.284;2022-09-21T09:19:17;4.85;;;2.45;;
32096;SDS011;18610;49.916;8.284;2022-09-21T09:21:50;6.45;;;3.65;;
32096;SDS011;18610;49.916;8.284;2022-09-21T09:24:18;9.02;;;3.42;;
32096;SDS011;18610;49.916;8.284;2022-09-21T09:26:58;8.10;;;2.90;;
32096;SDS011;18610;49.916;8.284;2022-09-21T09:29:30;7.82;;;3.03;;
32096;SDS011;18610;49.916;8.284;2022-09-21T09:32:04;7.47;;;2.45;;
32096;SDS011;18610;49.916;8.284;2022-09-21T09:34:40;10.27;;;2.60;;
32096;SDS011;18610;49.916;8.284;2022-09-21T09:37:10;9.27;;;2.60;;
32096;SDS011;18610;49.916;8.284;2022-09-21T09:39:38;5.50;;;2.20;;
32096;SDS011;18610;49.916;8.284;2022-09-21T09:42:22;10.13;;;2.13;;
32096;SDS011;18610;49.916;8.284;2022-09-21T09:45:11;4.88;;;1.80;;
32096;SDS011;18610;49.916;8.284;2022-09-21T09:47:55;6.78;;;1.95;;
32096;SDS011;18610;49.916;8.284;2022-09-21T09:50:30;7.22;;;2.35;;
32096;SDS011;18610;49.916;8.284;2022-09-21T09:53:01;1.85;;;1.38;;
32096;SDS011;18610;49.916;8.284;2022-09-21T09:55:34;6.18;;;2.08;;
32096;SDS011;18610;49.916;8.284;2022-09-21T09:58:04;5.88;;;2.00;;
32096;SDS011;18610;49.916;8.284;2022-09-21T10:00:40;3.92;;;1.80;;
32096;SDS011;18610;49.916;8.284;2022-09-21T10:03:14;5.57;;;1.63;;
32096;SDS011;18610;49.916;8.284;2022-09-21T10:05:42;3.38;;;1.33;;
32096;SDS011;18610;49.916;8.284;2022-09-21T10:08:18;6.13;;;1.80;;
32096;SDS011;18610;49.916;8.284;2022-09-21T10:10:56;7.00;;;1.45;;
32096;SDS011;18610;49.916;8.284;2022-09-21T10:13:26;7.25;;;2.50;;
32096;SDS011;18610;49.916;8.284;2022-09-21T10:15:56;4.68;;;1.10;;
32096;SDS011;18610;49.916;8.284;2022-09-21T10:18:25;3.65;;;1.10;;
32096;SDS011;18610;49.916;8.284;2022-09-21T10:20:59;5.20;;;1.27;;
32096;SDS011;18610;49.916;8.284;2022-09-21T10:23:27;3.60;;;1.10;;
32096;SDS011;18610;49.916;8.284;2022-09-21T10:25:57;4.63;;;1.20;;
32096;SDS011;18610;49.916;8.284;2022-09-21T10:28:28;8.43;;;1.65;;
32096;SDS011;18610;49.916;8.284;2022-09-21T10:31:06;7.28;;;1.75;;
32096;SDS011;18610;49.916;8.284;2022-09-21T10:33:42;3.85;;;1.10;;
32096;SDS011;18610;49.916;8.284;2022-09-21T10:36:26;2.95;;;0.90;;
32096;SDS011;18610;49.916;8.284;2022-09-21T10:39:16;2.23;;;1.30;;
32096;SDS011;18610;49.916;8.284;2022-09-21T10:41:49;3.03;;;1.42;;
32096;SDS011;18610;49.916;8.284;2022-09-21T10:44:20;3.22;;;0.90;;
32096;SDS011;18610;49.916;8.284;2022-09-21T10:46:50;2.50;;;1.00;;
32096;SDS011;18610;49.916;8.284;2022-09-21T10:49:19;3.92;;;1.10;;
32096;SDS011;18610;49.916;8.284;2022-09-21T10:51:48;1.23;;;0.57;;
32096;SDS011;18610;49.916;8.284;2022-09-21T10:54:18;2.13;;;0.80;;
32096;SDS011;18610;49.916;8.284;2022-09-21T10:56:50;4.78;;;1.08;;
32096;SDS011;18610;49.916;8.284;2022-09-21T10:59:21;3.47;;;0.90;;
32096;SDS011;18610;49.916;8.284;2022-09-21T11:01:50;2.72;;;0.80;;
32096;SDS011;18610;49.916;8.284;2022-09-21T11:04:19;6.85;;;0.80;;
32096;SDS011;18610;49.916;8.284;2022-09-21T11:06:53;9.20;;;1.20;;
32096;SDS011;18610;49.916;8.284;2022-09-21T11:09:27;2.88;;;0.73;;
32096;SDS011;18610;49.916;8.284;2022-09-21T11:12:00;4.60;;;0.93;;
32096;SDS011;18610;49.916;8.284;2022-09-21T11:14:40;2.17;;;0.80;;
32096;SDS011;18610;49.916;8.284;2022-09-21T11:17:11;5.22;;;1.00;;
32096;SDS011;18610;49.916;8.284;2022-09-21T11:19:44;5.70;;;0.77;;
32096;SDS011;18610;49.916;8.284;2022-09-21T11:22:18;3.83;;;1.25;;
32096;SDS011;18610;49.916;8.284;2022-09-21T11:24:56;5.30;;;0.80;;
32096;SDS011;18610;49.916;8.284;2022-09-21T11:27:33;7.63;;;1.00;;
32096;SDS011;18610;49.916;8.284;2022-09-21T11:30:05;4.38;;;0.80;;
32096;SDS011;18610;49.916;8.284;2022-09-21T11:32:40;2.30;;;0.70;;
32096;SDS011;18610;49.916;8.284;2022-09-21T11:35:27;3.80;;;0.95;;
32096;SDS011;18610;49.916;8.284;2022-09-21T11:38:05;3.25;;;0.85;;
32096;SDS011;18610;49.916;8.284;2022-09-21T11:40:46;5.82;;;1.15;;
32096;SDS011;18610;49.916;8.284;2022-09-21T11:43:26;2.03;;;0.73;;
32096;SDS011;18610;49.916;8.284;2022-09-21T11:46:06;3.20;;;0.90;;
32096;SDS011;18610;49.916;8.284;2022-09-21T11:48:43;7.00;;;1.10;;
32096;SDS011;18610;49.916;8.284;2022-09-21T11:51:23;4.30;;;0.93;;
32096;SDS011;18610;49.916;8.284;2022-09-21T11:54:13;2.72;;;1.00;;
32096;SDS011;18610;49.916;8.284;2022-09-21T11:56:53;3.35;;;0.90;;
32096;SDS011;18610;49.916;8.284;2022-09-21T11:59:28;2.00;;;0.80;;
32096;SDS011;18610;49.916;8.284;2022-09-21T12:02:31;2.10;;;0.65;;
32096;SDS011;18610;49.916;8.284;2022-09-21T12:05:12;2.78;;;0.80;;
32096;SDS011;18610;49.916;8.284;2022-09-21T12:07:49;2.45;;;0.73;;
32096;SDS011;18610;49.916;8.284;2022-09-21T12:10:37;1.00;;;0.75;;
32096;SDS011;18610;49.916;8.284;2022-09-21T12:13:07;3.00;;;0.40;;
32096;SDS011;18610;49.916;8.284;2022-09-21T12:15:44;2.58;;;0.73;;
32096;SDS011;18610;49.916;8.284;2022-09-21T12:18:19;1.00;;;0.47;;
32096;SDS011;18610;49.916;8.284;2022-09-21T12:20:55;1.17;;;0.68;;
32096;SDS011;18610;49.916;8.284;2022-09-21T12:23:40;2.30;;;0.60;;
32096;SDS011;18610;49.916;8.284;2022-09-21T12:26:09;2.58;;;0.70;;
32096;SDS011;18610;49.916;8.284;2022-09-21T12:28:40;0.77;;;0.45;;
32096;SDS011;18610;49.916;8.284;2022-09-21T12:31:11;2.83;;;0.60;;
32096;SDS011;18610;49.916;8.284;2022-09-21T12:33:46;4.53;;;0.70;;
32096;SDS011;18610;49.916;8.284;2022-09-21T12:36:17;2.63;;;0.57;;
32096;SDS011;18610;49.916;8.284;2022-09-21T12:38:49;1.95;;;0.75;;
32096;SDS011;18610;49.916;8.284;2022-09-21T12:41:21;1.60;;;0.50;;
32096;SDS011;18610;49.916;8.284;2022-09-21T12:43:56;1.05;;;0.45;;
32096;SDS011;18610;49.916;8.284;2022-09-21T12:46:30;3.45;;;0.73;;
32096;SDS011;18610;49.916;8.284;2022-09-21T12:49:02;3.38;;;0.50;;
32096;SDS011;18610;49.916;8.284;2022-09-21T12:51:40;3.15;;;0.50;;
32096;SDS011;18610;49.916;8.284;2022-09-21T12:54:12;1.45;;;0.60;;
32096;SDS011;18610;49.916;8.284;2022-09-21T12:56:47;0.60;;;0.60;;
32096;SDS011;18610;49.916;8.284;2022-09-21T13:01:53;2.00;;;0.65;;
32096;SDS011;18610;49.916;8.284;2022-09-21T13:07:09;4.13;;;0.60;;
32096;SDS011;18610;49.916;8.284;2022-09-21T13:09:48;0.93;;;0.60;;
32096;SDS011;18610;49.916;8.284;2022-09-21T13:12:16;4.45;;;0.50;;
32096;SDS011;18610;49.916;8.284;2022-09-21T13:14:48;1.27;;;0.57;;
32096;SDS011;18610;49.916;8.284;2022-09-21T13:17:18;1.77;;;0.55;;
32096;SDS011;18610;49.916;8.284;2022-09-21T13:19:55;1.50;;;0.68;;
32096;SDS011;18610;49.916;8.284;2022-09-21T13:22:28;2.70;;;0.90;;
32096;SDS011;18610;49.916;8.284;2022-09-21T13:24:58;2.33;;;0.77;;
32096;SDS011;18610;49.916;8.284;2022-09-21T13:30:29;2.88;;;0.60;;
32096;SDS011;18610;49.916;8.284;2022-09-21T13:32:58;0.70;;;0.47;;
32096;SDS011;18610;49.916;8.284;2022-09-21T13:38:26;4.25;;;0.60;;
32096;SDS011;18610;49.916;8.284;2022-09-21T13:40:56;1.63;;;0.80;;
32096;SDS011;18610;49.916;8.284;2022-09-21T13:49:15;2.05;;;0.70;;
32096;SDS011;18610;49.916;8.284;2022-09-21T13:51:51;1.80;;;0.43;;
32096;SDS011;18610;49.916;8.284;2022-09-21T13:54:22;3.97;;;0.82;;
32096;SDS011;18610;49.916;8.284;2022-09-21T13:56:58;2.38;;;0.63;;
32096;SDS011;18610;49.916;8.284;2022-09-21T13:59:31;2.72;;;0.57;;
32096;SDS011;18610;49.916;8.284;2022-09-21T14:02:00;1.77;;;0.52;;
32096;SDS011;18610;49.916;8.284;2022-09-21T14:04:28;0.80;;;0.45;;
32096;SDS011;18610;49.916;8.284;2022-09-21T14:07:02;0.73;;;0.40;;
32096;SDS011;18610;49.916;8.284;2022-09-21T14:09:33;1.80;;;0.55;;
32096;SDS011;18610;49.916;8.284;2022-09-21T14:12:07;1.63;;;0.65;;
32096;SDS011;18610;49.916;8.284;2022-09-21T14:14:42;1.05;;;0.50;;
32096;SDS011;18610;49.916;8.284;2022-09-21T14:17:33;1.38;;;0.40;;
32096;SDS011;18610;49.916;8.284;2022-09-21T14:22:43;0.95;;;0.40;;
32096;SDS011;18610;49.916;8.284;2022-09-21T14:25:28;1.77;;;0.47;;
32096;SDS011;18610;49.916;8.284;2022-09-21T14:28:12;4.57;;;0.60;;
32096;SDS011;18610;49.916;8.284;2022-09-21T14:30:47;3.00;;;0.80;;
32096;SDS011;18610;49.916;8.284;2022-09-21T14:33:27;1.17;;;0.50;;
32096;SDS011;18610;49.916;8.284;2022-09-21T14:35:57;2.30;;;0.60;;
32096;SDS011;18610;49.916;8.284;2022-09-21T14:38:30;0.50;;;0.40;;
32096;SDS011;18610;49.916;8.284;2022-09-21T14:41:05;1.75;;;0.75;;
32096;SDS011;18610;49.916;8.284;2022-09-21T14:43:33;3.22;;;1.00;;
32096;SDS011;18610;49.916;8.284;2022-09-21T14:46:15;4.13;;;0.80;;
32096;SDS011;18610;49.916;8.284;2022-09-21T14:48:57;1.85;;;0.60;;
32096;SDS011;18610;49.916;8.284;2022-09-21T14:51:35;0.70;;;0.65;;
32096;SDS011;18610;49.916;8.284;2022-09-21T14:54:13;1.65;;;0.70;;
32096;SDS011;18610;49.916;8.284;2022-09-21T14:56:58;1.95;;;0.50;;
32096;SDS011;18610;49.916;8.284;2022-09-21T14:59:45;1.50;;;0.60;;
32096;SDS011;18610;49.916;8.284;2022-09-21T15:02:23;2.35;;;0.60;;
32096;SDS011;18610;49.916;8.284;2022-09-21T15:05:00;2.58;;;0.82;;
32096;SDS011;18610;49.916;8.284;2022-09-21T15:07:39;1.58;;;0.57;;
32096;SDS011;18610;49.916;8.284;2022-09-21T15:10:29;2.05;;;0.80;;
32096;SDS011;18610;49.916;8.284;2022-09-21T15:13:17;1.55;;;0.47;;
32096;SDS011;18610;49.916;8.284;2022-09-21T15:15:56;1.65;;;0.63;;
32096;SDS011;18610;49.916;8.284;2022-09-21T15:18:31;2.40;;;0.70;;
32096;SDS011;18610;49.916;8.284;2022-09-21T15:21:01;1.38;;;0.88;;
32096;SDS011;18610;49.916;8.284;2022-09-21T15:23:30;2.72;;;1.00;;
32096;SDS011;18610;49.916;8.284;2022-09-21T15:26:01;0.90;;;0.70;;
32096;SDS011;18610;49.916;8.284;2022-09-21T15:28:33;0.80;;;0.40;;
32096;SDS011;18610;49.916;8.284;2022-09-21T15:31:02;0.60;;;0.60;;
32096;SDS011;18610;49.916;8.284;2022-09-21T15:33:30;1.85;;;0.80;;
32096;SDS011;18610;49.916;8.284;2022-09-21T15:36:01;0.57;;;0.57;;